createdAt,value
2018-04-30T00:01:02.909Z,47.76
2018-04-30T00:03:30.497Z,51.82
2018-04-30T00:05:58.085Z,52.34
2018-04-30T00:08:25.951Z,52.81
2018-04-30T00:10:53.558Z,53.44
2018-04-30T00:13:21.166Z,54.04
2018-04-30T00:15:48.762Z,54.57
2018-04-30T00:18:16.313Z,54.09
2018-04-30T00:20:43.936Z,54.30
2018-04-30T00:23:11.858Z,54.23
2018-04-30T00:25:40.078Z,55.01
2018-04-30T00:28:07.900Z,54.61
2018-04-30T00:30:35.460Z,54.44
2018-04-30T00:33:03.025Z,54.53
2018-04-30T00:35:30.767Z,53.01
2018-04-30T00:37:58.363Z,51.50
2018-04-30T00:40:25.933Z,50.76
2018-04-30T00:42:53.533Z,52.45
2018-04-30T00:45:21.080Z,54.30
2018-04-30T00:47:48.788Z,54.23
2018-04-30T00:50:16.561Z,54.67
2018-04-30T00:52:44.268Z,54.70
2018-04-30T00:55:11.839Z,54.60
2018-04-30T00:57:39.434Z,55.47
2018-04-30T01:00:07.222Z,55.81
2018-04-30T01:02:34.786Z,56.09
2018-04-30T01:05:02.357Z,55.77
2018-04-30T01:07:29.916Z,54.34
2018-04-30T01:09:57.702Z,52.09
2018-04-30T01:12:25.432Z,54.03
2018-04-30T01:14:53.000Z,53.77
2018-04-30T01:17:20.619Z,55.86
2018-04-30T01:19:48.184Z,56.99
2018-04-30T01:22:15.782Z,56.97
2018-04-30T01:24:43.348Z,57.26
2018-04-30T01:27:10.905Z,57.43
2018-04-30T01:29:38.516Z,57.84
2018-04-30T01:32:06.092Z,57.92
2018-04-30T01:34:33.835Z,57.75
2018-04-30T01:37:01.623Z,57.73
2018-04-30T01:39:29.419Z,57.85
2018-04-30T01:41:57.030Z,58.17
2018-04-30T01:44:24.689Z,58.54
2018-04-30T01:46:52.272Z,58.69
2018-04-30T01:49:19.854Z,59.52
2018-04-30T01:51:47.493Z,58.75
2018-04-30T01:54:15.330Z,58.49
2018-04-30T01:56:42.939Z,58.91
2018-04-30T01:59:10.513Z,59.32
2018-04-30T02:01:38.255Z,59.85
2018-04-30T02:04:06.099Z,59.99
2018-04-30T02:06:33.698Z,60.16
2018-04-30T02:09:01.256Z,60.37
2018-04-30T02:11:28.824Z,59.90
2018-04-30T02:13:56.467Z,60.04
2018-04-30T02:16:24.354Z,60.26
2018-04-30T02:18:52.199Z,60.68
2018-04-30T02:21:19.767Z,60.44
2018-04-30T02:23:47.364Z,60.22
2018-04-30T02:26:14.937Z,59.78
2018-04-30T02:28:42.560Z,59.94
2018-04-30T02:31:10.213Z,60.37
2018-04-30T02:33:37.817Z,60.63
2018-04-30T02:36:05.634Z,61.16
2018-04-30T02:38:33.207Z,61.18
2018-04-30T02:41:00.970Z,61.34
2018-04-30T02:43:28.788Z,61.50
2018-04-30T02:45:56.506Z,61.61
2018-04-30T02:48:24.072Z,61.99
2018-04-30T02:50:51.689Z,62.76
2018-04-30T02:53:19.461Z,63.44
2018-04-30T02:55:47.298Z,63.59
2018-04-30T02:58:14.849Z,64.23
2018-04-30T03:00:42.718Z,64.24
2018-04-30T03:03:10.323Z,64.46
2018-04-30T03:05:37.893Z,64.90
2018-04-30T03:08:05.629Z,64.64
2018-04-30T03:10:33.391Z,64.83
2018-04-30T03:13:00.969Z,64.53
2018-04-30T03:15:28.637Z,64.11
2018-04-30T03:17:56.219Z,63.58
2018-04-30T03:20:24.160Z,63.66
2018-04-30T03:22:51.779Z,63.47
2018-04-30T03:25:19.333Z,63.85
2018-04-30T03:27:46.948Z,63.70
2018-04-30T03:30:14.527Z,63.96
2018-04-30T03:32:42.121Z,64.04
2018-04-30T03:35:09.781Z,63.94
2018-04-30T03:37:37.337Z,63.75
2018-04-30T03:40:04.976Z,63.63
2018-04-30T03:42:32.564Z,63.83
2018-04-30T03:45:00.152Z,63.40
2018-04-30T03:47:27.752Z,63.27
2018-04-30T03:49:55.322Z,63.45
2018-04-30T03:52:22.890Z,63.84
2018-04-30T03:54:50.483Z,63.95
2018-04-30T03:57:18.120Z,64.29
2018-04-30T03:59:45.737Z,64.25
2018-04-30T04:02:25.289Z,64.06
2018-04-30T04:05:04.684Z,63.89
2018-04-30T04:07:32.385Z,63.29
2018-04-30T04:09:59.968Z,62.98
2018-04-30T04:12:27.682Z,63.03
2018-04-30T04:14:55.537Z,62.95
2018-04-30T04:17:23.255Z,62.90
2018-04-30T04:19:50.854Z,62.85
2018-04-30T04:22:18.408Z,62.43
2018-04-30T04:24:46.071Z,62.56
2018-04-30T04:27:13.701Z,62.50
2018-04-30T04:29:41.545Z,62.13
2018-04-30T04:32:09.163Z,61.42
2018-04-30T04:34:36.737Z,61.51
2018-04-30T04:37:04.304Z,61.64
2018-04-30T04:39:32.119Z,60.91
2018-04-30T04:41:59.763Z,60.48
2018-04-30T04:44:27.370Z,59.94
2018-04-30T04:46:55.063Z,59.47
2018-04-30T04:49:22.784Z,59.46
2018-04-30T04:51:50.399Z,59.26
2018-04-30T04:54:18.144Z,58.17
2018-04-30T04:56:45.843Z,58.51
2018-04-30T04:59:13.410Z,58.13
2018-04-30T05:01:41.069Z,58.48
2018-04-30T05:04:08.684Z,58.15
2018-04-30T05:06:36.378Z,57.92
2018-04-30T05:09:03.993Z,57.89
2018-04-30T05:11:31.544Z,57.42
2018-04-30T05:13:59.103Z,56.39
2018-04-30T05:16:26.817Z,54.49
2018-04-30T05:18:54.523Z,50.86
2018-04-30T05:21:22.089Z,47.26
2018-04-30T05:23:49.732Z,43.23
2018-04-30T05:26:17.297Z,39.36
2018-04-30T05:28:44.938Z,39.41
2018-04-30T05:31:12.517Z,38.31
2018-04-30T05:33:40.102Z,36.31
2018-04-30T05:36:07.931Z,34.78
2018-04-30T05:38:35.749Z,34.27
2018-04-30T05:41:03.533Z,33.89
2018-04-30T05:43:31.286Z,33.18
2018-04-30T05:45:58.895Z,33.29
2018-04-30T05:48:26.512Z,32.40
2018-04-30T05:50:54.079Z,32.81
2018-04-30T05:53:21.963Z,32.28
2018-04-30T05:55:49.536Z,32.75
2018-04-30T05:58:17.088Z,31.32
2018-04-30T06:00:44.666Z,31.11
2018-04-30T06:03:12.232Z,31.66
2018-04-30T06:05:39.844Z,32.51
2018-04-30T06:08:07.404Z,32.80
2018-04-30T06:10:34.969Z,32.92
2018-04-30T06:13:02.801Z,32.67
2018-04-30T06:15:30.354Z,32.35
2018-04-30T06:17:58.138Z,31.83
2018-04-30T06:20:25.747Z,30.37
2018-04-30T06:22:53.304Z,29.21
2018-04-30T06:25:21.091Z,27.63
2018-04-30T06:27:48.701Z,26.82
2018-04-30T06:30:16.529Z,26.24
2018-04-30T06:32:44.247Z,25.29
2018-04-30T06:35:12.029Z,25.47
2018-04-30T06:37:39.601Z,25.20
2018-04-30T06:40:07.186Z,25.85
2018-04-30T06:42:34.800Z,26.79
2018-04-30T06:45:02.540Z,26.91
2018-04-30T06:47:30.105Z,25.87
2018-04-30T06:49:57.678Z,25.49
2018-04-30T06:52:25.232Z,25.41
2018-04-30T06:54:52.836Z,24.84
2018-04-30T06:57:20.526Z,24.98
2018-04-30T06:59:48.406Z,24.18
2018-04-30T07:02:15.996Z,23.47
2018-04-30T07:04:43.668Z,23.24
2018-04-30T07:07:11.276Z,23.82
2018-04-30T07:09:39.010Z,24.00
2018-04-30T07:12:06.636Z,22.84
2018-04-30T07:14:34.354Z,21.76
2018-04-30T07:17:01.967Z,22.04
2018-04-30T07:19:29.557Z,22.96
2018-04-30T07:21:57.104Z,23.13
2018-04-30T07:24:24.666Z,23.64
2018-04-30T07:26:52.238Z,22.22
2018-04-30T07:29:19.853Z,21.36
2018-04-30T07:31:47.680Z,22.12
2018-04-30T07:34:15.228Z,22.04
2018-04-30T07:36:42.828Z,23.45
2018-04-30T07:39:10.724Z,23.35
2018-04-30T07:41:38.339Z,23.76
2018-04-30T07:44:06.005Z,22.38
2018-04-30T07:46:33.568Z,22.33
2018-04-30T07:49:01.126Z,23.13
2018-04-30T07:51:28.700Z,23.74
2018-04-30T07:53:56.260Z,24.00
2018-04-30T07:56:23.912Z,24.24
2018-04-30T07:58:51.453Z,23.66
2018-04-30T08:01:19.176Z,24.82
2018-04-30T08:03:46.914Z,23.85
2018-04-30T08:06:14.633Z,23.61
2018-04-30T08:08:42.249Z,24.16
2018-04-30T08:11:09.813Z,22.96
2018-04-30T08:13:37.372Z,22.51
2018-04-30T08:16:04.960Z,22.67
2018-04-30T08:18:32.605Z,22.82
2018-04-30T08:21:00.438Z,22.42
2018-04-30T08:23:28.064Z,23.37
2018-04-30T08:25:55.689Z,24.03
2018-04-30T08:28:23.259Z,23.86
2018-04-30T08:30:50.816Z,24.65
2018-04-30T08:33:18.522Z,23.79
2018-04-30T08:35:46.112Z,23.44
2018-04-30T08:38:13.759Z,23.49
2018-04-30T08:40:41.584Z,24.03
2018-04-30T08:43:09.168Z,24.37
2018-04-30T08:45:36.789Z,25.41
2018-04-30T08:48:04.397Z,26.40
2018-04-30T08:50:32.120Z,26.16
2018-04-30T08:52:59.699Z,27.48
2018-04-30T08:55:27.493Z,27.48
2018-04-30T08:57:55.314Z,27.38
2018-04-30T09:00:22.887Z,28.81
2018-04-30T09:02:50.647Z,30.23
2018-04-30T09:05:19.246Z,29.76
2018-04-30T09:07:46.811Z,30.57
2018-04-30T09:10:14.516Z,30.21
2018-04-30T09:12:42.091Z,30.80
2018-04-30T09:15:09.841Z,30.45
2018-04-30T09:17:37.400Z,30.60
2018-04-30T09:20:05.071Z,30.86
2018-04-30T09:22:32.672Z,30.19
2018-04-30T09:25:00.415Z,29.02
2018-04-30T09:27:28.047Z,29.08
2018-04-30T09:29:55.623Z,29.37
2018-04-30T09:32:23.188Z,28.20
2018-04-30T09:34:50.777Z,27.94
2018-04-30T09:37:18.467Z,27.99
2018-04-30T09:39:46.174Z,27.08
2018-04-30T09:42:13.745Z,26.44
2018-04-30T09:44:41.458Z,26.68
2018-04-30T09:47:09.363Z,26.00
2018-04-30T09:49:36.872Z,25.40
2018-04-30T09:52:04.464Z,25.51
2018-04-30T09:54:32.332Z,25.44
2018-04-30T09:56:59.865Z,25.96
2018-04-30T09:59:27.490Z,24.82
2018-04-30T10:01:55.286Z,25.71
2018-04-30T10:04:22.851Z,26.02
2018-04-30T10:06:50.526Z,27.44
2018-04-30T10:09:18.073Z,26.21
2018-04-30T10:11:45.696Z,25.04
2018-04-30T10:14:13.253Z,25.17
2018-04-30T10:16:40.965Z,25.73
2018-04-30T10:19:08.568Z,26.56
2018-04-30T10:21:36.191Z,26.88
2018-04-30T10:24:03.961Z,26.98
2018-04-30T10:26:31.671Z,26.44
2018-04-30T10:28:59.254Z,26.86
2018-04-30T10:31:26.970Z,26.35
2018-04-30T10:33:54.684Z,27.06
2018-04-30T10:36:22.540Z,27.17
2018-04-30T10:38:50.358Z,27.74
2018-04-30T10:41:17.989Z,27.26
2018-04-30T10:43:45.796Z,27.03
2018-04-30T10:46:13.351Z,27.33
2018-04-30T10:48:41.022Z,26.83
2018-04-30T10:51:08.572Z,25.53
2018-04-30T10:53:36.156Z,25.18
2018-04-30T10:56:03.985Z,25.80
2018-04-30T10:58:31.539Z,25.82
2018-04-30T11:00:59.160Z,25.33
2018-04-30T11:03:26.748Z,25.31
2018-04-30T11:05:54.556Z,25.91
2018-04-30T11:08:22.121Z,26.36
2018-04-30T11:10:49.895Z,27.72
2018-04-30T11:13:17.528Z,26.71
2018-04-30T11:15:45.090Z,26.63
2018-04-30T11:18:12.849Z,26.31
2018-04-30T11:20:40.417Z,25.85
2018-04-30T11:23:08.152Z,26.98
2018-04-30T11:25:35.774Z,27.68
2018-04-30T11:28:03.411Z,27.62
2018-04-30T11:30:31.004Z,28.17
2018-04-30T11:32:58.726Z,28.04
2018-04-30T11:35:26.662Z,27.69
2018-04-30T11:37:54.308Z,27.79
2018-04-30T11:40:22.112Z,27.97
2018-04-30T11:42:49.819Z,27.78
2018-04-30T11:45:17.556Z,27.71
2018-04-30T11:47:45.159Z,27.87
2018-04-30T11:50:12.798Z,28.20
2018-04-30T11:52:40.396Z,27.47
2018-04-30T11:55:07.961Z,27.48
2018-04-30T11:57:35.630Z,28.24
2018-04-30T12:00:03.244Z,27.37
2018-04-30T12:02:30.975Z,26.84
2018-04-30T12:04:58.567Z,26.35
2018-04-30T12:07:26.121Z,26.83
2018-04-30T12:09:53.821Z,27.18
2018-04-30T12:12:21.441Z,27.38
2018-04-30T12:14:49.137Z,27.31
2018-04-30T12:17:16.773Z,27.40
2018-04-30T12:19:44.606Z,27.93
2018-04-30T12:22:12.457Z,28.21
2018-04-30T12:24:40.076Z,28.50
2018-04-30T12:27:07.773Z,28.70
2018-04-30T12:29:35.575Z,28.04
2018-04-30T12:32:03.393Z,28.76
2018-04-30T12:34:30.969Z,28.73
2018-04-30T12:36:58.730Z,28.15
2018-04-30T12:39:26.352Z,27.71
2018-04-30T12:41:53.912Z,29.42
2018-04-30T12:44:21.584Z,28.17
2018-04-30T12:46:49.405Z,29.09
2018-04-30T12:49:16.965Z,28.50
2018-04-30T12:51:44.597Z,28.65
2018-04-30T12:54:12.356Z,27.12
2018-04-30T12:56:39.932Z,27.67
2018-04-30T12:59:07.693Z,27.00
2018-04-30T13:01:35.512Z,27.97
2018-04-30T13:04:03.161Z,28.39
2018-04-30T13:06:30.827Z,28.21
2018-04-30T13:08:58.627Z,27.59
2018-04-30T13:11:26.284Z,27.27
2018-04-30T13:13:53.850Z,26.94
2018-04-30T13:16:21.602Z,27.13
2018-04-30T13:18:49.279Z,27.58
2018-04-30T13:21:17.023Z,26.82
2018-04-30T13:23:44.603Z,26.52
2018-04-30T13:26:12.186Z,26.60
2018-04-30T13:28:40.042Z,26.78
2018-04-30T13:31:07.724Z,27.28
2018-04-30T13:33:35.285Z,26.67
2018-04-30T13:36:02.860Z,25.92
2018-04-30T13:38:30.408Z,25.93
2018-04-30T13:40:58.071Z,26.38
2018-04-30T13:43:25.819Z,27.38
2018-04-30T13:45:53.412Z,27.14
2018-04-30T13:48:20.974Z,27.86
2018-04-30T13:50:48.541Z,28.55
2018-04-30T13:53:16.129Z,28.49
2018-04-30T13:55:43.685Z,29.22
2018-04-30T13:58:11.240Z,29.00
2018-04-30T14:00:39.044Z,29.60
2018-04-30T14:03:06.629Z,30.86
2018-04-30T14:05:34.489Z,32.04
2018-04-30T14:08:02.199Z,32.88
2018-04-30T14:10:29.808Z,33.52
2018-04-30T14:12:57.507Z,33.79
2018-04-30T14:15:25.065Z,32.81
2018-04-30T14:17:52.677Z,33.99
2018-04-30T14:20:20.272Z,33.46
2018-04-30T14:22:47.821Z,34.21
2018-04-30T14:25:15.429Z,33.97
2018-04-30T14:27:43.128Z,33.93
2018-04-30T14:30:10.680Z,33.15
2018-04-30T14:32:38.478Z,33.78
2018-04-30T14:35:06.043Z,33.81
2018-04-30T14:37:33.816Z,34.03
2018-04-30T14:40:01.379Z,33.28
2018-04-30T14:42:29.151Z,34.26
2018-04-30T14:44:56.971Z,33.92
2018-04-30T14:47:24.532Z,34.41
2018-04-30T14:49:52.224Z,33.94
2018-04-30T14:52:19.860Z,34.38
2018-04-30T14:54:47.642Z,34.87
2018-04-30T14:57:15.340Z,35.10
2018-04-30T14:59:42.920Z,35.68
2018-04-30T15:02:10.471Z,35.58
2018-04-30T15:04:38.192Z,35.52
2018-04-30T15:07:05.932Z,34.97
2018-04-30T15:09:33.484Z,35.17
2018-04-30T15:12:01.062Z,36.00
2018-04-30T15:14:28.671Z,35.64
2018-04-30T15:16:56.295Z,34.89
2018-04-30T15:19:23.890Z,36.18
2018-04-30T15:21:51.641Z,36.96
2018-04-30T15:24:19.208Z,36.45
2018-04-30T15:26:46.869Z,36.03
2018-04-30T15:29:14.595Z,37.42
2018-04-30T15:31:42.205Z,37.21
2018-04-30T15:34:09.895Z,37.08
2018-04-30T15:36:37.613Z,37.70
2018-04-30T15:39:05.241Z,37.76
2018-04-30T15:41:32.987Z,38.53
2018-04-30T15:44:00.614Z,39.42
2018-04-30T15:46:28.179Z,39.67
2018-04-30T15:48:56.040Z,39.85
2018-04-30T15:51:23.612Z,40.18
2018-04-30T15:53:51.204Z,40.43
2018-04-30T15:56:18.833Z,41.17
2018-04-30T15:58:46.388Z,41.22
2018-04-30T16:01:14.077Z,41.85
2018-04-30T16:03:41.620Z,42.45
2018-04-30T16:06:09.186Z,42.73
2018-04-30T16:08:36.789Z,42.96
2018-04-30T16:11:04.361Z,43.40
2018-04-30T16:13:31.930Z,43.40
2018-04-30T16:15:59.492Z,43.95
2018-04-30T16:18:27.029Z,44.52
2018-04-30T16:20:54.650Z,45.21
2018-04-30T16:23:22.213Z,45.64
2018-04-30T16:25:49.809Z,45.43
2018-04-30T16:28:17.626Z,45.30
2018-04-30T16:30:45.446Z,45.28
2018-04-30T16:33:13.059Z,45.43
2018-04-30T16:35:40.617Z,44.94
2018-04-30T16:38:08.216Z,44.64
2018-04-30T16:40:35.813Z,44.26
2018-04-30T16:43:03.411Z,44.37
2018-04-30T16:45:31.041Z,44.37
2018-04-30T16:47:58.773Z,44.47
2018-04-30T16:50:26.351Z,44.51
2018-04-30T16:52:53.957Z,44.53
2018-04-30T16:55:21.683Z,44.54
2018-04-30T16:57:49.544Z,44.37
2018-04-30T17:00:17.173Z,44.47
2018-04-30T17:02:44.771Z,44.65
2018-04-30T17:05:12.333Z,44.94
2018-04-30T17:07:39.920Z,45.14
2018-04-30T17:10:07.582Z,45.48
2018-04-30T17:12:35.176Z,45.67
2018-04-30T17:15:02.736Z,45.94
2018-04-30T17:17:30.333Z,46.18
2018-04-30T17:19:57.919Z,46.28
2018-04-30T17:22:25.540Z,46.27
2018-04-30T17:24:53.124Z,46.24
2018-04-30T17:27:20.966Z,46.47
2018-04-30T17:29:48.781Z,46.59
2018-04-30T17:32:16.389Z,46.63
2018-04-30T17:34:44.244Z,46.88
2018-04-30T17:37:11.803Z,47.25
2018-04-30T17:39:39.372Z,47.60
2018-04-30T17:42:06.956Z,47.77
2018-04-30T17:44:34.544Z,47.87
2018-04-30T17:47:02.201Z,47.47
2018-04-30T17:49:29.759Z,47.57
2018-04-30T17:51:57.541Z,47.59
2018-04-30T17:54:25.242Z,47.83
2018-04-30T17:56:52.824Z,48.21
2018-04-30T17:59:20.596Z,48.20
2018-04-30T18:01:48.416Z,48.42
2018-04-30T18:04:16.173Z,53.97
2018-04-30T18:06:44.124Z,56.87
2018-04-30T18:09:11.734Z,57.93
2018-04-30T18:11:39.285Z,58.88
2018-04-30T18:14:06.884Z,59.95
2018-04-30T18:16:34.444Z,60.46
2018-04-30T18:19:02.136Z,60.03
2018-04-30T18:21:29.750Z,60.02
2018-04-30T18:23:57.331Z,60.38
2018-04-30T18:26:25.094Z,60.38
2018-04-30T18:28:52.912Z,60.30
2018-04-30T18:31:20.476Z,60.42
2018-04-30T18:33:48.104Z,60.36
2018-04-30T18:36:15.672Z,60.33
2018-04-30T18:38:43.321Z,60.10
2018-04-30T18:41:11.108Z,59.15
2018-04-30T18:43:38.922Z,58.29
2018-04-30T18:46:06.524Z,57.12
2018-04-30T18:48:34.080Z,57.07
2018-04-30T18:51:01.632Z,56.80
2018-04-30T18:53:29.394Z,56.77
2018-04-30T18:55:57.211Z,56.38
2018-04-30T18:58:24.832Z,56.68
2018-04-30T19:00:52.430Z,57.41
2018-04-30T19:03:20.151Z,58.21
2018-04-30T19:05:47.737Z,58.32
2018-04-30T19:08:15.352Z,58.55
2018-04-30T19:10:43.215Z,58.17
2018-04-30T19:13:10.932Z,58.04
2018-04-30T19:15:38.547Z,58.30
2018-04-30T19:18:06.130Z,58.61
2018-04-30T19:20:33.707Z,59.20
2018-04-30T19:23:01.504Z,59.56
2018-04-30T19:25:29.109Z,60.22
2018-04-30T19:27:56.702Z,60.06
2018-04-30T19:30:24.426Z,60.26
2018-04-30T19:32:52.167Z,60.88
2018-04-30T19:35:19.853Z,60.72
2018-04-30T19:37:47.600Z,60.80
2018-04-30T19:40:15.213Z,62.34
2018-04-30T19:42:42.826Z,61.82
2018-04-30T19:45:10.416Z,62.02
2018-04-30T19:47:38.070Z,61.67
2018-04-30T19:50:05.648Z,61.54
2018-04-30T19:52:33.435Z,61.28
2018-04-30T19:55:01.040Z,60.93
2018-04-30T19:57:29.114Z,60.85
2018-04-30T19:59:56.698Z,61.15
2018-04-30T20:02:24.332Z,61.45
2018-04-30T20:04:51.900Z,61.65
2018-04-30T20:07:19.461Z,62.15
2018-04-30T20:09:47.114Z,61.58
2018-04-30T20:12:14.704Z,61.73
2018-04-30T20:14:42.594Z,62.84
2018-04-30T20:17:10.154Z,62.92
2018-04-30T20:19:37.897Z,63.17
2018-04-30T20:22:05.629Z,63.34
2018-04-30T20:24:33.197Z,63.16
2018-04-30T20:27:00.869Z,63.33
2018-04-30T20:29:28.534Z,63.34
2018-04-30T20:31:56.101Z,63.59
2018-04-30T20:34:23.680Z,63.54
2018-04-30T20:36:51.312Z,63.80
2018-04-30T20:39:18.910Z,64.28
2018-04-30T20:41:46.474Z,63.96
2018-04-30T20:44:14.313Z,64.09
2018-04-30T20:46:41.912Z,64.40
2018-04-30T20:49:09.653Z,64.55
2018-04-30T20:51:37.393Z,65.21
2018-04-30T20:54:05.151Z,65.09
2018-04-30T20:56:32.908Z,64.80
2018-04-30T20:59:00.437Z,65.19
2018-04-30T21:01:28.248Z,64.78
2018-04-30T21:03:56.059Z,65.09
2018-04-30T21:06:23.835Z,64.90
2018-04-30T21:09:03.209Z,64.76
2018-04-30T21:11:30.963Z,65.46
2018-04-30T21:13:58.525Z,66.06
2018-04-30T21:16:26.125Z,66.14
2018-04-30T21:18:53.832Z,66.30
2018-04-30T21:21:21.645Z,66.81
2018-04-30T21:23:49.215Z,67.21
2018-04-30T21:26:16.809Z,66.79
2018-04-30T21:28:44.421Z,66.93
2018-04-30T21:31:12.102Z,67.46
2018-04-30T21:33:39.724Z,67.64
2018-04-30T21:36:07.327Z,67.86
2018-04-30T21:38:35.055Z,67.95
2018-04-30T21:41:02.681Z,68.13
2018-04-30T21:43:30.273Z,68.79
2018-04-30T21:45:57.891Z,69.12
2018-04-30T21:48:25.830Z,69.17
2018-04-30T21:50:53.481Z,68.54
2018-04-30T21:53:21.065Z,68.22
2018-04-30T21:55:48.779Z,67.71
2018-04-30T21:58:16.599Z,68.15
2018-04-30T22:00:44.185Z,68.46
2018-04-30T22:03:11.969Z,68.91
2018-04-30T22:05:39.551Z,69.03
2018-04-30T22:08:07.452Z,69.00
2018-04-30T22:10:35.085Z,69.13
2018-04-30T22:13:02.695Z,68.72
2018-04-30T22:15:30.527Z,68.73
2018-04-30T22:17:58.107Z,69.10
2018-04-30T22:20:25.681Z,69.20
2018-04-30T22:22:53.300Z,69.68
2018-04-30T22:25:21.098Z,70.00
2018-04-30T22:27:48.669Z,70.09
2018-04-30T22:30:16.319Z,70.75
2018-04-30T22:32:44.010Z,71.01
2018-04-30T22:35:11.961Z,71.32
2018-04-30T22:37:40.092Z,71.49
2018-04-30T22:40:07.811Z,70.76
2018-04-30T22:42:35.393Z,70.81
2018-04-30T22:45:02.957Z,70.80
2018-04-30T22:47:30.592Z,70.78
2018-04-30T22:49:58.148Z,70.58
2018-04-30T22:52:25.878Z,70.44
2018-04-30T22:54:53.448Z,70.87
2018-04-30T22:57:21.237Z,71.43
2018-04-30T22:59:48.857Z,71.78
2018-04-30T23:02:16.429Z,72.06
2018-04-30T23:04:44.110Z,72.31
2018-04-30T23:07:12.096Z,72.52
2018-04-30T23:09:39.867Z,72.92
2018-04-30T23:12:07.612Z,73.03
2018-04-30T23:14:35.363Z,73.21
2018-04-30T23:17:03.184Z,73.19
2018-04-30T23:19:30.883Z,73.29
2018-04-30T23:21:58.619Z,73.34
2018-04-30T23:24:26.192Z,73.28
2018-04-30T23:26:53.983Z,73.23
2018-04-30T23:29:21.616Z,73.21
2018-04-30T23:31:49.207Z,73.08
2018-04-30T23:34:17.017Z,73.03
2018-04-30T23:36:44.830Z,73.02
2018-04-30T23:39:12.391Z,73.05
2018-04-30T23:41:40.017Z,72.93
2018-04-30T23:44:07.594Z,72.76
2018-04-30T23:46:35.420Z,73.10
2018-04-30T23:49:02.992Z,73.50
2018-04-30T23:51:30.548Z,73.62
2018-04-30T23:53:58.176Z,74.00
2018-04-30T23:56:25.972Z,73.89
2018-04-30T23:58:53.538Z,74.57
